createdAt,value
2023-03-02T00:00:10.680Z,18.08
2023-03-02T00:05:12.608Z,14.15
2023-03-02T00:10:14.366Z,17.83
2023-03-02T00:15:16.085Z,11.73
2023-03-02T00:20:17.750Z,13.05
2023-03-02T00:25:19.525Z,9.70
2023-03-02T00:30:21.442Z,10.18
2023-03-02T00:35:23.433Z,10.25
2023-03-02T00:40:25.304Z,50.65
2023-03-02T00:45:27.343Z,16.38
2023-03-02T00:50:29.030Z,13.60
2023-03-02T00:55:30.635Z,12.30
2023-03-02T01:00:33.392Z,14.50
2023-03-02T01:10:41.257Z,14.80
2023-03-02T01:15:43.859Z,11.73
2023-03-02T01:20:45.510Z,13.75
2023-03-02T01:25:47.217Z,12.77
2023-03-02T01:30:48.875Z,11.60
2023-03-02T01:35:50.541Z,10.05
2023-03-02T01:40:52.069Z,13.35
2023-03-02T01:46:02.837Z,13.40
2023-03-02T01:51:28.588Z,13.15
2023-03-02T01:56:36.180Z,10.55
2023-03-02T02:01:41.437Z,15.80
2023-03-02T02:07:04.204Z,13.45
2023-03-02T02:12:06.190Z,12.75
2023-03-02T02:17:09.748Z,14.35
2023-03-02T02:22:15.285Z,11.90
2023-03-02T02:27:17.085Z,10.93
2023-03-02T02:32:25.739Z,17.63
2023-03-02T02:37:41.942Z,13.43
2023-03-02T02:42:48.473Z,13.27
2023-03-02T02:47:51.357Z,14.52
2023-03-02T02:53:01.217Z,14.57
2023-03-02T02:58:06.919Z,14.32
2023-03-02T03:03:19.647Z,13.77
2023-03-02T03:08:43.244Z,12.52
2023-03-02T03:13:50.512Z,14.32
2023-03-02T03:18:53.285Z,11.68
2023-03-02T03:23:55.491Z,13.98
2023-03-02T03:28:57.367Z,15.02
2023-03-02T03:33:59.547Z,18.50
2023-03-02T03:39:05.563Z,15.38
2023-03-02T03:44:08.941Z,13.95
2023-03-02T03:49:12.597Z,15.07
2023-03-02T03:54:14.902Z,16.10
2023-03-02T03:59:21.381Z,15.50
2023-03-02T04:04:30.446Z,16.35
2023-03-02T04:09:32.818Z,18.13
2023-03-02T04:14:35.017Z,17.02
2023-03-02T04:19:36.847Z,15.40
2023-03-02T04:24:39.140Z,14.30
2023-03-02T04:29:41.264Z,18.20
2023-03-02T04:34:43.545Z,17.15
2023-03-02T04:39:45.519Z,17.52
2023-03-02T04:44:48.042Z,15.00
2023-03-02T04:49:49.637Z,17.63
2023-03-02T04:54:52.217Z,16.50
2023-03-02T04:59:53.809Z,14.48
2023-03-02T05:04:55.510Z,16.95
2023-03-02T05:09:57.254Z,15.70
2023-03-02T05:14:59.026Z,16.83
2023-03-02T05:20:00.689Z,16.20
2023-03-02T05:25:02.315Z,19.92
2023-03-02T05:30:06.375Z,16.05
2023-03-02T05:35:08.325Z,17.33
2023-03-02T05:40:15.951Z,15.38
2023-03-02T05:45:31.675Z,16.38
2023-03-02T05:50:33.706Z,16.98
2023-03-02T05:55:35.290Z,17.77
2023-03-02T06:00:37.007Z,14.65
2023-03-02T06:05:39.028Z,15.50
2023-03-02T06:10:41.043Z,16.83
2023-03-02T06:15:42.897Z,18.17
2023-03-02T06:20:44.502Z,15.45
2023-03-02T06:25:46.139Z,16.08
2023-03-02T06:30:49.049Z,17.75
2023-03-02T06:35:50.703Z,16.08
2023-03-02T06:40:52.321Z,15.57
2023-03-02T06:45:53.949Z,18.63
2023-03-02T06:50:55.651Z,18.83
2023-03-02T06:55:57.193Z,28.73
2023-03-02T07:00:58.792Z,16.73
2023-03-02T07:06:00.422Z,14.32
2023-03-02T07:11:05.831Z,17.55
2023-03-02T07:16:12.352Z,17.10
2023-03-02T07:26:15.547Z,15.40
2023-03-02T07:31:17.224Z,13.80
2023-03-02T07:36:18.750Z,11.25
2023-03-02T07:41:20.684Z,13.45
2023-03-02T07:46:22.397Z,11.88
2023-03-02T07:51:23.996Z,12.38
2023-03-02T07:56:25.662Z,10.85
2023-03-02T08:01:27.334Z,9.52
2023-03-02T08:06:29.079Z,12.65
2023-03-02T08:11:31.119Z,11.35
2023-03-02T08:16:33.345Z,12.75
2023-03-02T08:21:35.338Z,17.17
2023-03-02T08:26:38.230Z,14.63
2023-03-02T08:31:40.025Z,14.27
2023-03-02T08:36:41.677Z,11.40
2023-03-02T08:41:43.496Z,12.52
2023-03-02T08:46:45.264Z,10.20
2023-03-02T08:51:46.979Z,11.38
2023-03-02T08:56:48.780Z,9.98
2023-03-02T09:01:50.419Z,13.05
2023-03-02T09:06:51.976Z,9.07
2023-03-02T09:11:53.752Z,10.82
2023-03-02T09:16:55.345Z,12.77
2023-03-02T09:21:57.007Z,12.35
2023-03-02T09:26:58.602Z,12.45
2023-03-02T09:32:00.303Z,10.10
2023-03-02T09:37:01.973Z,11.60
2023-03-02T09:42:25.408Z,11.63
2023-03-02T09:47:49.869Z,12.40
2023-03-02T09:53:16.449Z,11.63
2023-03-02T09:58:20.733Z,10.65
2023-03-02T10:03:31.961Z,10.85
2023-03-02T10:08:36.083Z,11.45
2023-03-02T10:13:47.661Z,10.02
2023-03-02T10:19:07.719Z,10.98
2023-03-02T10:24:20.930Z,12.05
2023-03-02T10:29:25.080Z,10.70
2023-03-02T10:34:29.048Z,12.38
2023-03-02T10:39:30.595Z,11.50
2023-03-02T10:44:37.011Z,9.70
2023-03-02T10:49:42.818Z,13.27
2023-03-02T10:54:45.157Z,13.18
2023-03-02T10:59:47.787Z,12.40
2023-03-02T11:04:59.127Z,11.40
2023-03-02T11:10:19.006Z,12.00
2023-03-02T11:15:32.620Z,10.32
2023-03-02T11:20:39.981Z,9.70
2023-03-02T11:25:51.069Z,9.70
2023-03-02T11:30:55.913Z,10.07
2023-03-02T11:36:11.820Z,11.15
2023-03-02T11:41:37.615Z,10.07
2023-03-02T11:46:39.609Z,11.18
2023-03-02T11:51:57.900Z,11.30
2023-03-02T11:57:00.334Z,10.10
2023-03-02T12:02:02.733Z,11.15
2023-03-02T12:07:24.822Z,10.95
2023-03-02T12:12:34.614Z,11.07
2023-03-02T12:17:36.212Z,9.95
2023-03-02T12:22:37.783Z,14.07
2023-03-02T12:27:40.275Z,9.85
2023-03-02T12:32:45.450Z,10.57
2023-03-02T12:38:01.106Z,11.73
2023-03-02T12:43:42.239Z,14.60
2023-03-02T12:49:00.421Z,8.98
2023-03-02T12:54:06.994Z,9.75
2023-03-02T12:59:20.146Z,10.80
2023-03-02T13:04:24.468Z,10.55
2023-03-02T13:09:26.218Z,10.18
2023-03-02T13:14:28.899Z,15.57
2023-03-02T13:19:31.016Z,10.70
2023-03-02T13:24:46.056Z,8.57
2023-03-02T13:29:48.392Z,8.70
2023-03-02T13:34:53.165Z,10.65
2023-03-02T13:39:56.982Z,10.60
2023-03-02T13:45:09.370Z,9.32
2023-03-02T13:50:24.547Z,11.45
2023-03-02T13:55:26.352Z,8.13
2023-03-02T14:00:35.676Z,7.97
2023-03-02T14:05:37.258Z,12.73
2023-03-02T14:10:38.950Z,12.63
2023-03-02T14:15:46.498Z,9.10
2023-03-02T14:20:48.152Z,10.63
2023-03-02T14:25:51.159Z,8.30
2023-03-02T14:30:55.541Z,8.77
2023-03-02T14:35:58.699Z,9.90
2023-03-02T14:41:00.334Z,8.48
2023-03-02T14:46:01.988Z,9.45
2023-03-02T14:51:03.899Z,9.38
2023-03-02T14:56:05.612Z,9.35
2023-03-02T15:01:07.237Z,7.68
2023-03-02T15:06:29.201Z,6.88
2023-03-02T15:11:31.823Z,6.85
2023-03-02T15:16:33.611Z,6.03
2023-03-02T15:21:35.476Z,7.90
2023-03-02T15:26:37.297Z,5.10
2023-03-02T15:31:39.057Z,5.45
2023-03-02T15:36:40.824Z,4.88
2023-03-02T15:41:42.795Z,9.13
2023-03-02T15:46:44.381Z,6.22
2023-03-02T15:51:46.020Z,6.32
2023-03-02T15:56:48.493Z,8.20
2023-03-02T16:01:52.052Z,7.53
2023-03-02T16:06:53.773Z,7.75
2023-03-02T16:11:55.395Z,7.90
2023-03-02T16:16:57.038Z,6.07
2023-03-02T16:21:58.631Z,6.05
2023-03-02T16:27:00.173Z,9.65
2023-03-02T16:32:01.937Z,6.05
2023-03-02T16:37:03.571Z,9.98
2023-03-02T16:42:05.227Z,6.07
2023-03-02T16:47:06.893Z,6.90
2023-03-02T16:52:08.535Z,5.88
2023-03-02T16:57:10.102Z,5.88
2023-03-02T17:02:12.253Z,7.65
2023-03-02T17:07:13.914Z,7.03
2023-03-02T17:12:15.460Z,5.55
2023-03-02T17:17:17.191Z,9.65
2023-03-02T17:22:18.742Z,56.08
2023-03-02T17:27:25.223Z,18.83
2023-03-02T17:32:27.413Z,23.92
2023-03-02T17:37:29.051Z,7.63
2023-03-02T17:42:30.676Z,5.43
2023-03-02T17:47:32.271Z,6.30
2023-03-02T17:52:33.899Z,7.25
2023-03-02T17:57:35.881Z,8.48
2023-03-02T18:02:37.617Z,6.32
2023-03-02T18:07:39.192Z,7.32
2023-03-02T18:12:40.866Z,6.72
2023-03-02T18:17:42.474Z,8.65
2023-03-02T18:22:44.061Z,5.25
2023-03-02T18:27:45.650Z,10.85
2023-03-02T18:32:47.993Z,7.70
2023-03-02T18:37:49.700Z,9.02
2023-03-02T18:42:51.400Z,6.90
2023-03-02T18:47:53.064Z,6.40
2023-03-02T18:52:54.704Z,8.05
2023-03-02T18:57:56.281Z,6.75
2023-03-02T19:02:58.163Z,8.18
2023-03-02T19:07:59.681Z,10.20
2023-03-02T19:13:02.140Z,7.65
2023-03-02T19:18:03.899Z,9.63
2023-03-02T19:23:05.502Z,8.02
2023-03-02T19:28:07.737Z,10.10
2023-03-02T19:33:09.569Z,8.52
2023-03-02T19:38:11.319Z,11.45
2023-03-02T19:43:13.080Z,9.52
2023-03-02T19:48:14.663Z,8.50
2023-03-02T19:53:16.325Z,12.45
2023-03-02T19:58:18.057Z,11.55
2023-03-02T20:03:19.602Z,11.27
2023-03-02T20:08:21.280Z,13.02
2023-03-02T20:13:23.251Z,14.68
2023-03-02T20:18:26.190Z,16.27
2023-03-02T20:23:28.315Z,15.23
2023-03-02T20:28:30.309Z,14.90
2023-03-02T20:33:37.350Z,16.05
2023-03-02T20:38:44.450Z,15.85
2023-03-02T20:43:46.314Z,18.35
2023-03-02T20:48:48.440Z,18.70
2023-03-02T20:53:50.139Z,16.92
2023-03-02T20:58:51.867Z,21.15
2023-03-02T21:03:53.415Z,19.67
2023-03-02T21:08:55.286Z,22.42
2023-03-02T21:13:57.133Z,18.90
2023-03-02T21:18:58.994Z,23.48
2023-03-02T21:24:00.941Z,24.55
2023-03-02T21:29:03.517Z,24.30
2023-03-02T21:34:05.180Z,33.42
2023-03-02T21:39:07.776Z,22.10
2023-03-02T21:44:09.465Z,27.67
2023-03-02T21:49:15.405Z,27.40
2023-03-02T21:54:16.953Z,26.35
2023-03-02T21:59:18.478Z,26.23
2023-03-02T22:04:20.033Z,24.10
2023-03-02T22:09:21.642Z,26.75
2023-03-02T22:14:23.906Z,31.27
2023-03-02T22:19:28.163Z,27.90
2023-03-02T22:24:31.446Z,29.83
2023-03-02T22:29:45.007Z,30.17
2023-03-02T22:34:49.603Z,30.63
2023-03-02T22:39:55.734Z,30.15
2023-03-02T22:45:15.517Z,29.53
2023-03-02T22:50:22.990Z,30.27
2023-03-02T22:55:42.328Z,29.90
2023-03-02T23:00:44.478Z,28.92
2023-03-02T23:05:47.699Z,37.20
2023-03-02T23:10:52.626Z,33.47
2023-03-02T23:15:54.883Z,33.97
2023-03-02T23:20:56.474Z,38.15
2023-03-02T23:25:58.060Z,34.47
2023-03-02T23:30:59.704Z,40.85
2023-03-02T23:36:01.266Z,32.90
2023-03-02T23:41:03.765Z,41.67
2023-03-02T23:46:05.775Z,35.03
2023-03-02T23:51:07.647Z,40.78
2023-03-02T23:56:09.251Z,37.17
